sensor_id;sensor_type;location;lat;lon;timestamp;pressure;altitude;pressure_sealevel;temperature;humidity
15604;BME280;7902;49.042;9.092;2022-09-30T00:01:23;98179.13;;;13.53;63.43
15604;BME280;7902;49.042;9.092;2022-09-30T00:03:51;98181.56;;;13.46;63.08
15604;BME280;7902;49.042;9.092;2022-09-30T00:06:17;98177.09;;;13.47;62.74
15604;BME280;7902;49.042;9.092;2022-09-30T00:08:46;98185.81;;;13.47;63.27
15604;BME280;7902;49.042;9.092;2022-09-30T00:11:18;98182.22;;;13.31;63.88
15604;BME280;7902;49.042;9.092;2022-09-30T00:13:46;98183.44;;;13.36;63.49
15604;BME280;7902;49.042;9.092;2022-09-30T00:16:14;98192.19;;;13.37;63.52
15604;BME280;7902;49.042;9.092;2022-09-30T00:18:41;98185.63;;;13.41;62.90
15604;BME280;7902;49.042;9.092;2022-09-30T00:21:09;98188.72;;;13.36;63.73
15604;BME280;7902;49.042;9.092;2022-09-30T00:23:36;98187.38;;;13.32;63.42
15604;BME280;7902;49.042;9.092;2022-09-30T00:26:05;98189.00;;;13.33;63.64
15604;BME280;7902;49.042;9.092;2022-09-30T00:28:32;98188.53;;;13.20;63.50
15604;BME280;7902;49.042;9.092;2022-09-30T00:31:03;98184.94;;;13.21;64.02
15604;BME280;7902;49.042;9.092;2022-09-30T00:33:30;98193.44;;;13.33;63.28
15604;BME280;7902;49.042;9.092;2022-09-30T00:35:56;98191.63;;;13.15;63.71
15604;BME280;7902;49.042;9.092;2022-09-30T00:38:22;98191.50;;;13.17;63.76
15604;BME280;7902;49.042;9.092;2022-09-30T00:40:48;98186.22;;;13.17;63.85
15604;BME280;7902;49.042;9.092;2022-09-30T00:43:19;98187.81;;;13.00;64.11
15604;BME280;7902;49.042;9.092;2022-09-30T00:45:51;98190.22;;;13.21;63.32
15604;BME280;7902;49.042;9.092;2022-09-30T00:48:23;98188.06;;;13.07;64.00
15604;BME280;7902;49.042;9.092;2022-09-30T00:50:52;98186.81;;;13.11;63.88
15604;BME280;7902;49.042;9.092;2022-09-30T00:55:58;98188.84;;;13.17;63.55
15604;BME280;7902;49.042;9.092;2022-09-30T00:58:41;98193.31;;;13.07;63.56
15604;BME280;7902;49.042;9.092;2022-09-30T01:01:09;98199.16;;;12.83;64.43
15604;BME280;7902;49.042;9.092;2022-09-30T01:03:42;98200.59;;;12.95;64.18
15604;BME280;7902;49.042;9.092;2022-09-30T01:06:10;98206.13;;;13.02;63.49
15604;BME280;7902;49.042;9.092;2022-09-30T01:08:38;98202.22;;;12.79;64.15
15604;BME280;7902;49.042;9.092;2022-09-30T01:11:05;98215.72;;;12.75;64.42
15604;BME280;7902;49.042;9.092;2022-09-30T01:13:32;98205.22;;;12.66;64.79
15604;BME280;7902;49.042;9.092;2022-09-30T01:27:22;98214.72;;;12.76;64.27
15604;BME280;7902;49.042;9.092;2022-09-30T01:30:06;98212.94;;;12.67;63.94
15604;BME280;7902;49.042;9.092;2022-09-30T01:38:25;98215.44;;;12.69;64.23
15604;BME280;7902;49.042;9.092;2022-09-30T01:48:45;98215.94;;;12.55;65.11
15604;BME280;7902;49.042;9.092;2022-09-30T01:53:55;98229.13;;;12.45;65.35
15604;BME280;7902;49.042;9.092;2022-09-30T01:56:37;98226.72;;;12.15;66.82
15604;BME280;7902;49.042;9.092;2022-09-30T01:59:14;98229.69;;;12.39;65.86
15604;BME280;7902;49.042;9.092;2022-09-30T02:01:48;98230.34;;;12.51;64.55
15604;BME280;7902;49.042;9.092;2022-09-30T02:04:37;98233.81;;;12.51;64.83
15604;BME280;7902;49.042;9.092;2022-09-30T02:07:09;98243.25;;;12.44;64.71
15604;BME280;7902;49.042;9.092;2022-09-30T02:09:44;98238.16;;;12.43;65.03
15604;BME280;7902;49.042;9.092;2022-09-30T02:12:18;98241.47;;;12.45;64.88
15604;BME280;7902;49.042;9.092;2022-09-30T02:14:51;98246.41;;;12.48;64.67
15604;BME280;7902;49.042;9.092;2022-09-30T02:17:27;98253.78;;;12.44;65.06
15604;BME280;7902;49.042;9.092;2022-09-30T02:19:59;98254.19;;;12.49;64.75
15604;BME280;7902;49.042;9.092;2022-09-30T02:22:34;98262.84;;;12.32;65.45
15604;BME280;7902;49.042;9.092;2022-09-30T02:25:11;98265.19;;;12.35;65.26
15604;BME280;7902;49.042;9.092;2022-09-30T02:27:43;98263.25;;;12.37;64.98
15604;BME280;7902;49.042;9.092;2022-09-30T02:30:11;98262.94;;;12.40;65.14
15604;BME280;7902;49.042;9.092;2022-09-30T02:32:45;98258.94;;;12.36;64.84
15604;BME280;7902;49.042;9.092;2022-09-30T02:37:51;98268.22;;;12.40;64.57
15604;BME280;7902;49.042;9.092;2022-09-30T02:42:56;98266.84;;;12.36;64.56
15604;BME280;7902;49.042;9.092;2022-09-30T02:45:22;98258.00;;;12.27;64.87
15604;BME280;7902;49.042;9.092;2022-09-30T02:50:30;98266.88;;;12.26;64.34
15604;BME280;7902;49.042;9.092;2022-09-30T02:53:35;98264.78;;;12.30;64.00
15604;BME280;7902;49.042;9.092;2022-09-30T02:56:13;98273.13;;;12.16;64.54
15604;BME280;7902;49.042;9.092;2022-09-30T02:58:44;98271.31;;;12.07;65.45
15604;BME280;7902;49.042;9.092;2022-09-30T03:01:15;98278.25;;;12.08;65.10
15604;BME280;7902;49.042;9.092;2022-09-30T03:03:54;98278.25;;;11.98;65.86
15604;BME280;7902;49.042;9.092;2022-09-30T03:06:21;98275.91;;;12.05;65.18
15604;BME280;7902;49.042;9.092;2022-09-30T03:08:50;98277.84;;;12.03;65.63
15604;BME280;7902;49.042;9.092;2022-09-30T03:11:19;98275.91;;;12.05;65.08
15604;BME280;7902;49.042;9.092;2022-09-30T03:14:06;98277.19;;;11.91;65.56
15604;BME280;7902;49.042;9.092;2022-09-30T03:25:13;98291.00;;;12.03;64.93
15604;BME280;7902;49.042;9.092;2022-09-30T03:30:24;98299.31;;;11.88;65.26
15604;BME280;7902;49.042;9.092;2022-09-30T03:41:21;98302.06;;;11.58;65.84
15604;BME280;7902;49.042;9.092;2022-09-30T03:46:29;98303.31;;;11.83;65.36
15604;BME280;7902;49.042;9.092;2022-09-30T03:49:00;98300.22;;;11.68;66.13
15604;BME280;7902;49.042;9.092;2022-09-30T03:51:28;98304.69;;;11.77;65.04
15604;BME280;7902;49.042;9.092;2022-09-30T03:53:55;98303.06;;;11.86;65.41
15604;BME280;7902;49.042;9.092;2022-09-30T03:56:29;98312.03;;;11.83;64.79
15604;BME280;7902;49.042;9.092;2022-09-30T03:58:56;98314.38;;;11.86;64.64
15604;BME280;7902;49.042;9.092;2022-09-30T04:01:23;98317.72;;;11.88;64.84
15604;BME280;7902;49.042;9.092;2022-09-30T04:03:50;98326.59;;;11.87;65.05
15604;BME280;7902;49.042;9.092;2022-09-30T04:06:21;98324.78;;;11.98;65.06
15604;BME280;7902;49.042;9.092;2022-09-30T04:08:47;98328.13;;;12.00;64.18
15604;BME280;7902;49.042;9.092;2022-09-30T04:11:13;98329.50;;;11.84;65.61
15604;BME280;7902;49.042;9.092;2022-09-30T04:13:39;98337.38;;;11.84;65.85
15604;BME280;7902;49.042;9.092;2022-09-30T04:16:06;98337.69;;;11.91;65.21
15604;BME280;7902;49.042;9.092;2022-09-30T04:18:36;98336.44;;;11.85;65.55
15604;BME280;7902;49.042;9.092;2022-09-30T04:21:12;98344.16;;;11.77;65.49
15604;BME280;7902;49.042;9.092;2022-09-30T04:23:40;98352.31;;;11.74;65.45
15604;BME280;7902;49.042;9.092;2022-09-30T04:26:08;98351.09;;;11.78;66.00
15604;BME280;7902;49.042;9.092;2022-09-30T04:28:35;98345.81;;;11.78;65.56
15604;BME280;7902;49.042;9.092;2022-09-30T04:31:02;98337.94;;;11.78;65.29
15604;BME280;7902;49.042;9.092;2022-09-30T04:33:28;98333.09;;;11.83;65.10
15604;BME280;7902;49.042;9.092;2022-09-30T04:35:55;98331.41;;;11.82;65.89
15604;BME280;7902;49.042;9.092;2022-09-30T04:38:22;98321.72;;;11.83;65.60
15604;BME280;7902;49.042;9.092;2022-09-30T04:40:52;98339.19;;;11.74;65.42
15604;BME280;7902;49.042;9.092;2022-09-30T04:43:22;98344.13;;;11.58;66.32
15604;BME280;7902;49.042;9.092;2022-09-30T04:45:50;98343.56;;;11.64;66.22
15604;BME280;7902;49.042;9.092;2022-09-30T04:48:17;98349.63;;;11.55;66.86
15604;BME280;7902;49.042;9.092;2022-09-30T04:50:43;98349.47;;;11.47;67.14
15604;BME280;7902;49.042;9.092;2022-09-30T04:53:13;98356.53;;;11.47;66.78
15604;BME280;7902;49.042;9.092;2022-09-30T04:55:40;98360.03;;;11.57;65.88
15604;BME280;7902;49.042;9.092;2022-09-30T04:58:06;98362.53;;;11.58;66.89
15604;BME280;7902;49.042;9.092;2022-09-30T05:00:32;98374.69;;;11.69;65.73
15604;BME280;7902;49.042;9.092;2022-09-30T05:02:58;98370.81;;;11.63;65.68
15604;BME280;7902;49.042;9.092;2022-09-30T05:05:24;98365.72;;;11.62;66.11
15604;BME280;7902;49.042;9.092;2022-09-30T05:07:50;98371.09;;;11.60;66.42
15604;BME280;7902;49.042;9.092;2022-09-30T05:10:16;98374.44;;;11.62;66.21
15604;BME280;7902;49.042;9.092;2022-09-30T05:12:42;98382.16;;;11.64;66.21
15604;BME280;7902;49.042;9.092;2022-09-30T05:15:08;98382.28;;;11.43;66.98
15604;BME280;7902;49.042;9.092;2022-09-30T05:17:35;98384.50;;;11.48;66.56
15604;BME280;7902;49.042;9.092;2022-09-30T05:20:01;98384.75;;;11.44;66.63
15604;BME280;7902;49.042;9.092;2022-09-30T05:22:28;98399.72;;;11.44;66.91
15604;BME280;7902;49.042;9.092;2022-09-30T05:24:54;98394.81;;;11.30;66.96
15604;BME280;7902;49.042;9.092;2022-09-30T05:27:23;98401.34;;;11.45;66.40
15604;BME280;7902;49.042;9.092;2022-09-30T05:29:49;98399.94;;;11.41;67.02
15604;BME280;7902;49.042;9.092;2022-09-30T05:32:15;98405.72;;;11.35;67.63
15604;BME280;7902;49.042;9.092;2022-09-30T05:34:42;98401.63;;;11.42;66.65
15604;BME280;7902;49.042;9.092;2022-09-30T05:37:08;98407.56;;;11.34;67.51
15604;BME280;7902;49.042;9.092;2022-09-30T05:39:34;98399.94;;;11.41;67.04
15604;BME280;7902;49.042;9.092;2022-09-30T05:42:01;98404.53;;;11.39;68.31
15604;BME280;7902;49.042;9.092;2022-09-30T05:44:27;98406.44;;;11.37;68.20
15604;BME280;7902;49.042;9.092;2022-09-30T05:46:53;98410.34;;;11.42;68.40
15604;BME280;7902;49.042;9.092;2022-09-30T05:49:19;98416.25;;;11.35;68.33
15604;BME280;7902;49.042;9.092;2022-09-30T05:51:45;98405.78;;;11.44;68.69
15604;BME280;7902;49.042;9.092;2022-09-30T05:54:11;98416.59;;;11.51;68.27
15604;BME280;7902;49.042;9.092;2022-09-30T05:56:37;98421.28;;;11.48;68.53
15604;BME280;7902;49.042;9.092;2022-09-30T05:59:06;98417.53;;;11.40;68.54
15604;BME280;7902;49.042;9.092;2022-09-30T06:01:32;98423.22;;;11.45;69.16
15604;BME280;7902;49.042;9.092;2022-09-30T06:03:58;98420.03;;;11.42;69.24
15604;BME280;7902;49.042;9.092;2022-09-30T06:06:24;98423.63;;;11.41;69.37
15604;BME280;7902;49.042;9.092;2022-09-30T06:08:51;98426.84;;;11.54;67.99
15604;BME280;7902;49.042;9.092;2022-09-30T06:11:19;98427.19;;;11.40;68.79
15604;BME280;7902;49.042;9.092;2022-09-30T06:13:46;98432.50;;;11.50;69.30
15604;BME280;7902;49.042;9.092;2022-09-30T06:16:13;98433.75;;;11.55;69.16
15604;BME280;7902;49.042;9.092;2022-09-30T06:18:40;98430.84;;;11.49;68.96
15604;BME280;7902;49.042;9.092;2022-09-30T06:21:08;98439.59;;;11.59;68.40
15604;BME280;7902;49.042;9.092;2022-09-30T06:23:35;98444.03;;;11.58;69.10
15604;BME280;7902;49.042;9.092;2022-09-30T06:26:03;98450.94;;;11.59;68.87
15604;BME280;7902;49.042;9.092;2022-09-30T06:28:30;98454.28;;;11.61;69.06
15604;BME280;7902;49.042;9.092;2022-09-30T06:31:00;98462.00;;;11.53;68.75
15604;BME280;7902;49.042;9.092;2022-09-30T06:33:27;98465.06;;;11.58;68.75
15604;BME280;7902;49.042;9.092;2022-09-30T06:35:53;98468.63;;;11.48;69.21
15604;BME280;7902;49.042;9.092;2022-09-30T06:38:19;98468.88;;;11.44;68.95
15604;BME280;7902;49.042;9.092;2022-09-30T06:40:48;98465.84;;;11.49;69.12
15604;BME280;7902;49.042;9.092;2022-09-30T06:43:15;98476.38;;;11.59;69.35
15604;BME280;7902;49.042;9.092;2022-09-30T06:45:44;98481.22;;;11.54;69.03
15604;BME280;7902;49.042;9.092;2022-09-30T06:48:10;98488.28;;;11.53;69.42
15604;BME280;7902;49.042;9.092;2022-09-30T06:50:37;98487.69;;;11.50;69.31
15604;BME280;7902;49.042;9.092;2022-09-30T06:53:06;98481.19;;;11.44;70.08
15604;BME280;7902;49.042;9.092;2022-09-30T06:55:33;98474.78;;;11.67;68.26
15604;BME280;7902;49.042;9.092;2022-09-30T06:58:05;98479.53;;;11.73;68.45
15604;BME280;7902;49.042;9.092;2022-09-30T07:00:33;98478.28;;;11.77;69.01
15604;BME280;7902;49.042;9.092;2022-09-30T07:02:59;98486.06;;;11.79;68.29
15604;BME280;7902;49.042;9.092;2022-09-30T07:05:25;98490.91;;;11.83;67.93
15604;BME280;7902;49.042;9.092;2022-09-30T07:07:52;98487.66;;;11.70;69.19
15604;BME280;7902;49.042;9.092;2022-09-30T07:10:18;98494.78;;;11.79;68.47
15604;BME280;7902;49.042;9.092;2022-09-30T07:12:50;98502.41;;;11.82;69.01
15604;BME280;7902;49.042;9.092;2022-09-30T07:15:17;98502.41;;;11.82;68.93
15604;BME280;7902;49.042;9.092;2022-09-30T07:17:53;98512.03;;;11.72;69.75
15604;BME280;7902;49.042;9.092;2022-09-30T07:20:21;98510.13;;;11.74;69.38
15604;BME280;7902;49.042;9.092;2022-09-30T07:22:47;98520.00;;;11.92;69.52
15604;BME280;7902;49.042;9.092;2022-09-30T07:25:13;98512.38;;;11.88;69.64
15604;BME280;7902;49.042;9.092;2022-09-30T07:27:40;98518.25;;;12.02;69.02
15604;BME280;7902;49.042;9.092;2022-09-30T07:30:07;98518.53;;;11.99;69.39
15604;BME280;7902;49.042;9.092;2022-09-30T07:32:33;98525.97;;;11.94;69.48
15604;BME280;7902;49.042;9.092;2022-09-30T07:34:59;98522.75;;;11.80;71.07
15604;BME280;7902;49.042;9.092;2022-09-30T07:37:25;98533.28;;;11.80;70.37
15604;BME280;7902;49.042;9.092;2022-09-30T07:39:51;98526.34;;;11.79;71.35
15604;BME280;7902;49.042;9.092;2022-09-30T07:42:19;98527.53;;;12.06;70.40
15604;BME280;7902;49.042;9.092;2022-09-30T07:44:47;98522.53;;;12.03;69.81
15604;BME280;7902;49.042;9.092;2022-09-30T07:47:14;98531.03;;;12.16;69.74
15604;BME280;7902;49.042;9.092;2022-09-30T07:49:41;98531.28;;;12.03;70.16
15604;BME280;7902;49.042;9.092;2022-09-30T07:52:08;98539.28;;;12.02;70.56
15604;BME280;7902;49.042;9.092;2022-09-30T07:54:34;98540.88;;;12.14;69.80
15604;BME280;7902;49.042;9.092;2022-09-30T07:57:02;98550.81;;;12.10;70.09
15604;BME280;7902;49.042;9.092;2022-09-30T07:59:29;98552.66;;;12.19;70.21
15604;BME280;7902;49.042;9.092;2022-09-30T08:01:56;98555.56;;;12.26;69.47
15604;BME280;7902;49.042;9.092;2022-09-30T08:04:24;98556.34;;;12.07;70.56
15604;BME280;7902;49.042;9.092;2022-09-30T08:06:54;98561.13;;;12.23;70.12
15604;BME280;7902;49.042;9.092;2022-09-30T08:09:22;98560.56;;;12.29;70.07
15604;BME280;7902;49.042;9.092;2022-09-30T08:11:48;98555.19;;;12.40;69.33
15604;BME280;7902;49.042;9.092;2022-09-30T08:14:22;98569.44;;;12.28;70.32
15604;BME280;7902;49.042;9.092;2022-09-30T08:16:49;98587.31;;;12.34;70.93
15604;BME280;7902;49.042;9.092;2022-09-30T08:19:19;98581.63;;;12.19;70.40
15604;BME280;7902;49.042;9.092;2022-09-30T08:21:46;98580.66;;;12.30;70.45
15604;BME280;7902;49.042;9.092;2022-09-30T08:24:12;98587.75;;;12.39;69.85
15604;BME280;7902;49.042;9.092;2022-09-30T08:26:39;98588.56;;;12.40;69.85
15604;BME280;7902;49.042;9.092;2022-09-30T08:29:05;98585.00;;;12.50;69.98
15604;BME280;7902;49.042;9.092;2022-09-30T08:31:32;98590.00;;;12.53;70.09
15604;BME280;7902;49.042;9.092;2022-09-30T08:33:58;98582.22;;;12.42;70.17
15604;BME280;7902;49.042;9.092;2022-09-30T08:36:25;98588.91;;;12.56;70.13
15604;BME280;7902;49.042;9.092;2022-09-30T08:38:52;98591.81;;;12.62;70.24
15604;BME280;7902;49.042;9.092;2022-09-30T08:50:28;98610.66;;;12.67;70.64
15604;BME280;7902;49.042;9.092;2022-09-30T08:53:01;98604.00;;;12.54;71.29
15604;BME280;7902;49.042;9.092;2022-09-30T08:55:34;98600.03;;;12.79;69.92
15604;BME280;7902;49.042;9.092;2022-09-30T08:58:03;98609.38;;;12.33;72.06
15604;BME280;7902;49.042;9.092;2022-09-30T09:00:32;98608.03;;;12.67;71.26
15604;BME280;7902;49.042;9.092;2022-09-30T09:02:59;98610.84;;;12.75;70.70
15604;BME280;7902;49.042;9.092;2022-09-30T09:05:37;98617.09;;;12.94;70.25
15604;BME280;7902;49.042;9.092;2022-09-30T09:08:20;98610.03;;;13.04;70.26
15604;BME280;7902;49.042;9.092;2022-09-30T09:11:05;98611.97;;;13.02;70.67
15604;BME280;7902;49.042;9.092;2022-09-30T09:14:36;98612.38;;;13.07;70.02
15604;BME280;7902;49.042;9.092;2022-09-30T09:20:02;98603.66;;;13.16;70.08
15604;BME280;7902;49.042;9.092;2022-09-30T09:22:30;98594.50;;;13.39;69.60
15604;BME280;7902;49.042;9.092;2022-09-30T09:24:56;98603.38;;;13.38;68.94
15604;BME280;7902;49.042;9.092;2022-09-30T09:27:44;98590.03;;;13.49;68.53
15604;BME280;7902;49.042;9.092;2022-09-30T09:30:18;98598.25;;;13.37;68.63
15604;BME280;7902;49.042;9.092;2022-09-30T09:32:51;98602.28;;;13.22;69.57
15604;BME280;7902;49.042;9.092;2022-09-30T09:35:28;98601.56;;;13.48;69.51
15604;BME280;7902;49.042;9.092;2022-09-30T09:38:05;98595.88;;;13.43;68.32
15604;BME280;7902;49.042;9.092;2022-09-30T09:41:11;98590.97;;;13.68;69.10
15604;BME280;7902;49.042;9.092;2022-09-30T09:43:50;98591.38;;;13.63;68.36
15604;BME280;7902;49.042;9.092;2022-09-30T09:46:26;98598.03;;;13.77;68.80
15604;BME280;7902;49.042;9.092;2022-09-30T09:51:41;98601.91;;;13.73;68.10
15604;BME280;7902;49.042;9.092;2022-09-30T09:54:12;98603.28;;;13.77;68.50
15604;BME280;7902;49.042;9.092;2022-09-30T09:56:40;98601.09;;;13.72;69.21
15604;BME280;7902;49.042;9.092;2022-09-30T09:59:13;98599.78;;;13.86;68.28
15604;BME280;7902;49.042;9.092;2022-09-30T10:01:45;98594.59;;;14.03;67.38
15604;BME280;7902;49.042;9.092;2022-09-30T10:06:56;98599.59;;;14.06;68.20
15604;BME280;7902;49.042;9.092;2022-09-30T10:09:36;98599.56;;;14.16;67.61
15604;BME280;7902;49.042;9.092;2022-09-30T10:14:33;98599.31;;;14.00;69.22
15604;BME280;7902;49.042;9.092;2022-09-30T10:17:01;98601.94;;;14.10;67.52
15604;BME280;7902;49.042;9.092;2022-09-30T10:19:31;98602.97;;;14.26;66.62
15604;BME280;7902;49.042;9.092;2022-09-30T10:24:34;98601.13;;;14.36;65.75
15604;BME280;7902;49.042;9.092;2022-09-30T10:27:01;98600.03;;;14.29;67.94
15604;BME280;7902;49.042;9.092;2022-09-30T10:29:32;98596.06;;;14.53;67.06
15604;BME280;7902;49.042;9.092;2022-09-30T10:32:00;98595.53;;;14.67;66.13
15604;BME280;7902;49.042;9.092;2022-09-30T10:34:27;98589.69;;;14.45;66.04
15604;BME280;7902;49.042;9.092;2022-09-30T10:37:00;98595.47;;;14.59;66.39
15604;BME280;7902;49.042;9.092;2022-09-30T10:39:29;98586.72;;;14.58;66.35
15604;BME280;7902;49.042;9.092;2022-09-30T10:47:13;98598.50;;;14.64;66.22
15604;BME280;7902;49.042;9.092;2022-09-30T10:49:52;98601.00;;;15.01;64.61
15604;BME280;7902;49.042;9.092;2022-09-30T10:52:23;98604.03;;;15.06;64.17
15604;BME280;7902;49.042;9.092;2022-09-30T10:54:55;98610.16;;;15.06;64.56
15604;BME280;7902;49.042;9.092;2022-09-30T10:57:33;98607.06;;;15.11;63.88
15604;BME280;7902;49.042;9.092;2022-09-30T11:00:26;98613.00;;;15.13;64.05
15604;BME280;7902;49.042;9.092;2022-09-30T11:03:14;98610.28;;;15.22;64.36
15604;BME280;7902;49.042;9.092;2022-09-30T11:05:43;98603.41;;;15.29;62.69
15604;BME280;7902;49.042;9.092;2022-09-30T11:13:43;98600.88;;;15.46;62.40
15604;BME280;7902;49.042;9.092;2022-09-30T11:16:28;98599.69;;;15.58;61.85
15604;BME280;7902;49.042;9.092;2022-09-30T11:21:54;98596.78;;;15.69;60.99
15604;BME280;7902;49.042;9.092;2022-09-30T11:24:31;98586.25;;;15.77;61.15
15604;BME280;7902;49.042;9.092;2022-09-30T11:28:01;98595.06;;;15.86;60.20
15604;BME280;7902;49.042;9.092;2022-09-30T11:30:24;98588.38;;;15.99;59.89
15604;BME280;7902;49.042;9.092;2022-09-30T11:41:14;98589.97;;;16.26;57.14
15604;BME280;7902;49.042;9.092;2022-09-30T11:57:32;98585.38;;;16.36;55.18
15604;BME280;7902;49.042;9.092;2022-09-30T12:00:19;98580.53;;;16.23;54.58
15604;BME280;7902;49.042;9.092;2022-09-30T12:05:38;98585.59;;;16.43;55.78
15604;BME280;7902;49.042;9.092;2022-09-30T12:10:51;98588.34;;;16.75;55.78
15604;BME280;7902;49.042;9.092;2022-09-30T12:13:24;98585.50;;;16.68;56.29
15604;BME280;7902;49.042;9.092;2022-09-30T12:15:53;98592.34;;;16.95;55.63
15604;BME280;7902;49.042;9.092;2022-09-30T12:18:27;98588.72;;;16.96;56.09
15604;BME280;7902;49.042;9.092;2022-09-30T12:20:59;98589.03;;;17.09;55.87
15604;BME280;7902;49.042;9.092;2022-09-30T12:23:31;98585.91;;;17.06;54.76
15604;BME280;7902;49.042;9.092;2022-09-30T12:26:00;98599.00;;;17.24;55.90
15604;BME280;7902;49.042;9.092;2022-09-30T12:28:41;98591.38;;;17.29;54.41
15604;BME280;7902;49.042;9.092;2022-09-30T12:42:38;98590.91;;;17.41;53.09
15604;BME280;7902;49.042;9.092;2022-09-30T12:45:22;98586.91;;;17.29;52.07
15604;BME280;7902;49.042;9.092;2022-09-30T12:47:56;98591.06;;;17.40;52.05
15604;BME280;7902;49.042;9.092;2022-09-30T12:50:29;98595.03;;;17.44;53.15
15604;BME280;7902;49.042;9.092;2022-09-30T12:53:19;98584.25;;;17.53;52.20
15604;BME280;7902;49.042;9.092;2022-09-30T12:55:47;98585.75;;;17.72;52.78
15604;BME280;7902;49.042;9.092;2022-09-30T12:58:25;98587.22;;;17.83;52.91
15604;BME280;7902;49.042;9.092;2022-09-30T13:01:10;98583.88;;;17.97;50.31
15604;BME280;7902;49.042;9.092;2022-09-30T13:06:09;98587.34;;;17.89;48.64
15604;BME280;7902;49.042;9.092;2022-09-30T13:08:47;98589.91;;;17.59;50.91
15604;BME280;7902;49.042;9.092;2022-09-30T13:11:46;98590.69;;;17.75;49.73
15604;BME280;7902;49.042;9.092;2022-09-30T13:19:35;98589.06;;;17.74;48.90
15604;BME280;7902;49.042;9.092;2022-09-30T13:27:49;98594.00;;;17.93;49.13
15604;BME280;7902;49.042;9.092;2022-09-30T13:32:47;98596.72;;;17.69;49.26
15604;BME280;7902;49.042;9.092;2022-09-30T13:35:35;98591.72;;;17.74;48.48
15604;BME280;7902;49.042;9.092;2022-09-30T13:43:11;98598.28;;;18.11;49.29
15604;BME280;7902;49.042;9.092;2022-09-30T13:45:41;98597.13;;;18.05;48.97
15604;BME280;7902;49.042;9.092;2022-09-30T13:48:14;98599.41;;;18.16;48.40
15604;BME280;7902;49.042;9.092;2022-09-30T13:50:51;98601.22;;;18.24;48.03
15604;BME280;7902;49.042;9.092;2022-09-30T13:53:27;98606.69;;;18.30;47.81
15604;BME280;7902;49.042;9.092;2022-09-30T13:55:55;98606.69;;;18.30;47.36
15604;BME280;7902;49.042;9.092;2022-09-30T13:58:51;98606.53;;;18.24;48.80
15604;BME280;7902;49.042;9.092;2022-09-30T14:01:49;98609.13;;;18.32;47.45
15604;BME280;7902;49.042;9.092;2022-09-30T14:07:10;98606.91;;;18.60;46.70
15604;BME280;7902;49.042;9.092;2022-09-30T14:15:10;98612.19;;;18.68;46.97
15604;BME280;7902;49.042;9.092;2022-09-30T14:18:32;98599.91;;;18.20;47.17
15604;BME280;7902;49.042;9.092;2022-09-30T14:23:41;98613.03;;;18.60;46.26
15604;BME280;7902;49.042;9.092;2022-09-30T14:31:43;98610.41;;;18.52;47.41
15604;BME280;7902;49.042;9.092;2022-09-30T14:34:12;98609.56;;;18.13;47.49
15604;BME280;7902;49.042;9.092;2022-09-30T14:36:38;98606.06;;;18.51;47.65
15604;BME280;7902;49.042;9.092;2022-09-30T14:39:12;98611.28;;;18.36;48.05
15604;BME280;7902;49.042;9.092;2022-09-30T14:41:47;98602.88;;;18.25;48.49
15604;BME280;7902;49.042;9.092;2022-09-30T14:44:15;98608.16;;;18.33;47.82
15604;BME280;7902;49.042;9.092;2022-09-30T14:46:44;98606.25;;;18.11;48.41
15604;BME280;7902;49.042;9.092;2022-09-30T14:49:15;98607.34;;;18.24;48.50
15604;BME280;7902;49.042;9.092;2022-09-30T14:51:43;98600.22;;;18.25;46.92
15604;BME280;7902;49.042;9.092;2022-09-30T14:54:17;98601.88;;;18.18;45.17
15604;BME280;7902;49.042;9.092;2022-09-30T14:56:43;98605.22;;;18.20;47.00
15604;BME280;7902;49.042;9.092;2022-09-30T14:59:21;98600.25;;;18.17;47.25
15604;BME280;7902;49.042;9.092;2022-09-30T15:01:52;98600.72;;;18.20;46.93
15604;BME280;7902;49.042;9.092;2022-09-30T15:04:26;98596.59;;;18.10;46.88
15604;BME280;7902;49.042;9.092;2022-09-30T15:06:52;98597.00;;;17.82;48.74
15604;BME280;7902;49.042;9.092;2022-09-30T15:09:32;98588.06;;;17.83;46.91
15604;BME280;7902;49.042;9.092;2022-09-30T15:12:10;98589.81;;;17.99;48.45
15604;BME280;7902;49.042;9.092;2022-09-30T15:17:25;98592.28;;;18.09;48.41
15604;BME280;7902;49.042;9.092;2022-09-30T15:19:55;98596.03;;;17.83;47.33
15604;BME280;7902;49.042;9.092;2022-09-30T15:22:24;98595.50;;;17.88;49.49
15604;BME280;7902;49.042;9.092;2022-09-30T15:24:52;98594.69;;;17.87;48.38
15604;BME280;7902;49.042;9.092;2022-09-30T15:27:21;98592.38;;;17.76;47.50
15604;BME280;7902;49.042;9.092;2022-09-30T15:30:00;98596.00;;;17.75;49.00
15604;BME280;7902;49.042;9.092;2022-09-30T15:32:36;98603.28;;;17.97;48.28
15604;BME280;7902;49.042;9.092;2022-09-30T15:35:15;98591.66;;;17.90;47.07
15604;BME280;7902;49.042;9.092;2022-09-30T15:37:44;98595.19;;;17.83;48.18
15604;BME280;7902;49.042;9.092;2022-09-30T15:40:20;98588.38;;;17.80;49.34
15604;BME280;7902;49.042;9.092;2022-09-30T15:43:08;98589.03;;;17.82;49.72
15604;BME280;7902;49.042;9.092;2022-09-30T15:45:37;98591.22;;;17.63;49.61
15604;BME280;7902;49.042;9.092;2022-09-30T15:48:12;98597.00;;;17.82;48.63
15604;BME280;7902;49.042;9.092;2022-09-30T15:50:53;98605.47;;;17.78;48.73
15604;BME280;7902;49.042;9.092;2022-09-30T16:04:06;98613.75;;;17.42;49.75
15604;BME280;7902;49.042;9.092;2022-09-30T16:09:19;98618.91;;;17.52;50.60
15604;BME280;7902;49.042;9.092;2022-09-30T16:14:32;98609.28;;;17.43;50.57
15604;BME280;7902;49.042;9.092;2022-09-30T16:17:02;98615.44;;;17.43;50.93
15604;BME280;7902;49.042;9.092;2022-09-30T16:19:29;98628.03;;;17.33;51.08
15604;BME280;7902;49.042;9.092;2022-09-30T16:21:56;98620.75;;;17.27;51.76
15604;BME280;7902;49.042;9.092;2022-09-30T16:26:53;98618.41;;;17.48;52.08
15604;BME280;7902;49.042;9.092;2022-09-30T16:29:21;98617.94;;;17.45;51.43
15604;BME280;7902;49.042;9.092;2022-09-30T16:31:49;98616.91;;;17.38;52.25
15604;BME280;7902;49.042;9.092;2022-09-30T16:34:24;98622.56;;;17.43;52.42
15604;BME280;7902;49.042;9.092;2022-09-30T16:36:51;98621.56;;;17.52;52.13
15604;BME280;7902;49.042;9.092;2022-09-30T16:39:18;98612.59;;;17.53;52.00
15604;BME280;7902;49.042;9.092;2022-09-30T16:41:45;98615.94;;;17.39;52.79
15604;BME280;7902;49.042;9.092;2022-09-30T16:44:12;98613.13;;;17.40;52.73
15604;BME280;7902;49.042;9.092;2022-09-30T16:46:38;98613.75;;;17.42;52.52